Time;durP1;ratioP1;P1;durP2;ratioP2;P2;SDS_P1;SDS_P2;PMS_P1;PMS_P2;Temp;Humidity;BMP_temperature;BMP_pressure;BME280_temperature;BME280_humidity;BME280_pressure;Samples;Min_cycle;Max_cycle;Signal;HPM_P1;HPM_P2
2021/09/17 00:00:57;;;;;;;7.22;4.13;;;12.60;99.90;;;11.22;100.00;101384.16;2567401;30;137507;-44
2021/09/17 00:03:25;;;;;;;7.78;4.38;;;12.70;99.90;;;11.26;100.00;101384.59;2566899;30;137509;-44
2021/09/17 00:05:53;;;;;;;6.15;3.83;;;12.70;99.90;;;11.29;100.00;101377.91;2567386;30;138066;-44
2021/09/17 00:08:22;;;;;;;8.35;4.53;;;12.80;99.90;;;11.33;100.00;101382.72;2567694;30;138117;-44
2021/09/17 00:10:49;;;;;;;7.20;4.72;;;12.80;99.90;;;11.39;100.00;101385.69;2565112;30;136954;-44
2021/09/17 00:13:17;;;;;;;7.75;4.85;;;12.80;99.90;;;11.43;100.00;101381.53;2568186;30;137176;-46
2021/09/17 00:15:45;;;;;;;;;;;12.90;99.90;;;11.48;100.00;101379.84;2568694;30;136967;-43
2021/09/17 00:18:13;;;;;;;7.15;4.55;;;12.90;99.90;;;11.52;100.00;101377.56;2567626;30;136751;-44
2021/09/17 00:20:42;;;;;;;6.88;4.40;;;13.00;99.90;;;11.56;100.00;101375.25;2568244;30;136798;-44
2021/09/17 00:23:12;;;;;;;9.43;4.32;;;13.00;99.90;;;11.59;100.00;101381.13;2567922;30;139527;-44
2021/09/17 00:25:39;;;;;;;;;;;13.00;99.90;;;11.59;100.00;101370.22;2568665;30;136767;-45
2021/09/17 00:28:07;;;;;;;8.05;4.30;;;13.00;99.90;;;11.62;100.00;101369.78;2566490;30;138449;-44
2021/09/17 00:30:35;;;;;;;11.52;5.38;;;13.10;99.90;;;11.64;100.00;101367.69;2565921;30;137176;-44
2021/09/17 00:33:04;;;;;;;6.32;4.32;;;13.10;99.90;;;11.68;100.00;101368.13;2565541;30;139174;-44
2021/09/17 00:35:32;;;;;;;7.15;4.28;;;13.10;99.90;;;11.72;100.00;101368.56;2564964;30;137372;-44
2021/09/17 00:38:04;;;;;;;9.75;5.05;;;13.20;99.90;;;11.73;100.00;101362.88;2565362;30;137547;-43
2021/09/17 00:40:32;;;;;;;10.27;5.43;;;13.20;99.90;;;11.74;100.00;101370.03;2567538;30;137493;-44
2021/09/17 00:43:00;;;;;;;6.22;4.28;;;13.20;99.90;;;11.73;100.00;101360.16;2566097;30;138357;-44
2021/09/17 00:45:28;;;;;;;6.57;4.43;;;13.20;99.90;;;11.72;100.00;101363.09;2568198;30;137384;-44
2021/09/17 00:47:55;;;;;;;9.48;4.63;;;13.20;99.90;;;11.74;100.00;101361.00;2566295;30;138609;-44
2021/09/17 00:50:23;;;;;;;6.78;4.50;;;13.20;99.90;;;11.74;100.00;101361.84;2567767;30;137731;-43
2021/09/17 00:52:54;;;;;;;8.07;5.63;;;13.20;99.90;;;11.75;100.00;101351.75;2568355;30;139276;-44
2021/09/17 00:55:23;;;;;;;7.28;4.70;;;13.20;99.90;;;11.77;100.00;101360.59;2565822;30;137970;-45
2021/09/17 00:57:50;;;;;;;7.80;4.93;;;13.20;99.90;;;11.71;100.00;101342.28;2567338;30;138652;-43
2021/09/17 01:00:21;;;;;;;9.13;4.95;;;13.20;99.90;;;11.78;100.00;101363.09;2567990;30;138374;-46
2021/09/17 01:02:49;;;;;;;8.05;4.82;;;13.20;99.90;;;11.75;100.00;101352.56;2568284;30;137439;-44
2021/09/17 01:05:17;;;;;;;;;;;13.30;99.90;;;11.83;100.00;101364.38;2568070;30;136858;-43
2021/09/17 01:10:26;;;;;;;9.07;5.18;;;13.30;99.90;;;11.86;100.00;101356.59;2570098;30;137018;-48
2021/09/17 01:12:55;;;;;;;6.07;4.50;;;13.30;99.90;;;11.83;100.00;101354.28;2569362;30;136771;-46
2021/09/17 01:15:23;;;;;;;6.72;4.85;;;13.30;99.90;;;11.88;100.00;101351.75;2570264;30;136928;-46
2021/09/17 01:17:51;;;;;;;6.82;4.72;;;13.30;99.90;;;11.90;100.00;101349.66;2568559;30;139357;-46
2021/09/17 01:20:20;;;;;;;8.00;5.18;;;13.40;99.90;;;11.91;100.00;101343.13;2572673;30;138318;-46
2021/09/17 01:22:50;;;;;;;7.78;5.05;;;13.40;99.90;;;11.94;100.00;101348.22;2568703;30;139601;-46
2021/09/17 01:25:21;;;;;;;7.82;4.93;;;13.40;99.90;;;11.94;100.00;101353.69;2569248;30;137408;-46
2021/09/17 01:27:52;;;;;;;8.05;4.88;;;13.40;99.90;;;11.97;100.00;101354.31;2570179;30;137135;-46
2021/09/17 01:30:22;;;;;;;7.97;5.15;;;13.40;99.90;;;11.99;100.00;101353.03;2567962;30;136771;-47
2021/09/17 01:32:51;;;;;;;8.73;4.57;;;13.40;99.90;;;12.02;100.00;101346.34;2567099;30;139414;-45
2021/09/17 01:35:23;;;;;;;8.60;5.38;;;13.40;99.90;;;12.04;100.00;101352.44;2567880;30;136827;-47
2021/09/17 01:37:51;;;;;;;7.90;5.03;;;13.50;99.90;;;12.04;100.00;101356.00;2568462;30;137345;-46
2021/09/17 01:40:19;;;;;;;8.13;4.90;;;13.50;99.90;;;12.07;100.00;101346.56;2569459;30;137451;-47
2021/09/17 01:42:47;;;;;;;;;;;13.50;99.90;;;12.10;100.00;101348.03;2568127;30;139169;-46
2021/09/17 01:45:15;;;;;;;8.82;5.38;;;13.50;99.90;;;12.10;100.00;101348.88;2569012;30;137843;-46
2021/09/17 01:47:43;;;;;;;7.63;5.18;;;13.50;99.90;;;12.11;100.00;101336.88;2568523;30;138299;-46
2021/09/17 01:50:12;;;;;;;10.02;5.35;;;13.50;99.90;;;12.13;100.00;101342.16;2566943;30;138574;-46
2021/09/17 01:52:41;;;;;;;7.28;4.57;;;13.60;99.90;;;12.14;100.00;101339.19;2568886;30;137490;-48
2021/09/17 01:55:09;;;;;;;7.93;5.43;;;13.60;99.90;;;12.10;100.00;101324.25;2569132;30;137031;-47
2021/09/17 01:57:37;;;;;;;9.02;5.43;;;13.60;99.90;;;12.16;100.00;101328.88;2569087;30;137892;-47
2021/09/17 02:00:07;;;;;;;8.52;5.20;;;13.60;99.90;;;12.18;100.00;101323.19;2572397;30;137549;-45
2021/09/17 02:02:35;;;;;;;10.18;6.68;;;13.60;99.90;;;12.20;100.00;101316.47;2568913;30;140186;-47
2021/09/17 02:05:04;;;;;;;11.68;6.68;;;13.60;99.90;;;12.22;100.00;101325.31;2567226;30;137077;-46
2021/09/17 02:07:32;;;;;;;10.70;6.93;;;13.60;99.90;;;12.21;100.00;101326.38;2570852;30;139474;-48
2021/09/17 02:09:59;;;;;;;11.50;7.40;;;13.60;99.90;;;12.23;100.00;101323.41;2569666;30;136755;-46
2021/09/17 02:12:27;;;;;;;;;;;13.60;99.90;;;12.26;100.00;101319.41;2568405;30;138463;-47
2021/09/17 02:14:55;;;;;;;11.70;8.25;;;13.70;99.90;;;12.29;100.00;101321.72;2571855;30;137101;-46
2021/09/17 02:17:24;;;;;;;;;;;13.70;99.90;;;12.31;100.00;101322.34;2570927;30;137941;-48
2021/09/17 02:19:53;;;;;;;11.00;7.13;;;13.70;99.90;;;12.28;100.00;101314.56;2569505;30;137758;-46
2021/09/17 02:22:21;;;;;;;11.15;7.28;;;13.70;99.90;;;12.32;100.00;101324.88;2568997;30;137357;-46
2021/09/17 02:24:49;;;;;;;11.75;7.28;;;13.70;99.90;;;12.34;100.00;101321.94;2567365;30;137422;-46
2021/09/17 02:27:17;;;;;;;13.10;8.55;;;13.80;99.90;;;12.36;100.00;101319.81;2569048;30;139217;-48
2021/09/17 02:29:44;;;;;;;12.80;8.52;;;13.80;99.90;;;12.36;100.00;101319.81;2570647;30;138099;-45
2021/09/17 02:32:13;;;;;;;14.23;9.15;;;13.80;99.90;;;12.39;100.00;101321.31;2565948;30;137408;-45
2021/09/17 02:34:41;;;;;;;13.20;8.30;;;13.80;99.90;;;12.40;100.00;101321.06;2570258;30;138252;-45
2021/09/17 02:37:09;;;;;;;12.88;8.82;;;13.80;99.90;;;12.38;100.00;101320.44;2569804;30;138228;-46
2021/09/17 02:39:37;;;;;;;12.88;8.30;;;13.80;99.90;;;12.40;100.00;101323.81;2568797;30;138031;-46
2021/09/17 02:42:05;;;;;;;11.77;7.78;;;13.80;99.90;;;12.42;100.00;101315.41;2570351;30;138291;-45
2021/09/17 02:44:33;;;;;;;13.15;8.45;;;13.80;99.90;;;12.42;100.00;101307.19;2568526;30;137701;-48
2021/09/17 02:47:01;;;;;;;16.55;9.77;;;13.80;99.90;;;12.41;100.00;101311.81;2570261;30;138271;-47
2021/09/17 02:49:33;;;;;;;17.17;10.07;;;13.80;99.90;;;12.46;100.00;101305.69;2568741;30;136831;-50
2021/09/17 02:52:02;;;;;;;16.48;9.63;;;13.90;99.90;;;12.46;100.00;101306.53;2568137;30;137902;-48
2021/09/17 02:54:29;;;;;;;16.55;10.75;;;13.80;99.90;;;12.46;100.00;101301.06;2570085;30;136758;-47
2021/09/17 02:56:57;;;;;;;17.77;11.70;;;13.80;99.90;;;12.49;100.00;101306.13;2570231;30;138234;-45
2021/09/17 02:59:25;;;;;;;16.42;10.85;;;13.90;99.90;;;12.49;100.00;101302.53;2567883;30;137675;-46
2021/09/17 03:01:53;;;;;;;13.48;8.70;;;13.90;99.90;;;12.51;100.00;101309.50;2569437;30;137745;-47
2021/09/17 03:04:20;;;;;;;16.35;10.88;;;13.90;99.90;;;12.52;100.00;101302.97;2566675;30;137649;-48
2021/09/17 03:06:49;;;;;;;20.05;11.25;;;13.90;99.90;;;12.52;100.00;101291.16;2569926;30;138512;-45
2021/09/17 03:09:16;;;;;;;16.17;10.25;;;13.90;99.90;;;12.52;100.00;101297.50;2570270;30;137140;-46
2021/09/17 03:11:44;;;;;;;14.80;10.00;;;13.90;99.90;;;12.52;100.00;101292.00;2569814;30;138067;-46
2021/09/17 03:14:12;;;;;;;14.68;9.82;;;13.90;99.90;;;12.52;100.00;101283.81;2569349;30;137742;-47
2021/09/17 03:16:39;;;;;;;14.60;9.75;;;13.90;99.90;;;12.52;100.00;101280.22;2569845;30;138604;-46
2021/09/17 03:19:07;;;;;;;18.35;11.02;;;13.90;99.90;;;12.52;100.00;101288.41;2570090;30;137489;-46
2021/09/17 03:21:34;;;;;;;15.43;8.85;;;13.90;99.90;;;12.51;100.00;101289.47;2567859;30;137269;-46
2021/09/17 03:24:02;;;;;;;15.27;10.40;;;13.90;99.90;;;12.52;100.00;101293.91;2568833;30;136855;-48
2021/09/17 03:26:30;;;;;;;15.88;9.88;;;13.90;99.90;;;12.52;100.00;101300.22;2569529;30;138191;-45
2021/09/17 03:28:59;;;;;;;15.40;9.60;;;13.90;99.90;;;12.54;100.00;101299.16;2566948;30;137769;-46
2021/09/17 03:31:27;;;;;;;14.65;9.57;;;13.90;99.90;;;12.54;100.00;101294.53;2570690;30;138550;-46
2021/09/17 03:33:55;;;;;;;;;;;13.90;99.90;;;12.55;100.00;101289.91;2569763;30;136985;-46
2021/09/17 03:36:22;;;;;;;15.98;9.52;;;13.90;99.90;;;12.55;100.00;101284.44;2568444;30;137535;-49
2021/09/17 03:38:50;;;;;;;15.80;10.27;;;13.90;99.90;;;12.55;100.00;101276.22;2569286;30;137321;-46
2021/09/17 03:41:18;;;;;;;16.13;9.95;;;13.90;99.90;;;12.55;100.00;101278.94;2570055;30;137490;-47
2021/09/17 03:43:45;;;;;;;19.50;11.15;;;13.90;99.90;;;12.55;100.00;101273.47;2569244;30;138210;-45
2021/09/17 03:46:13;;;;;;;16.88;10.50;;;13.90;99.90;;;12.55;100.00;101271.56;2569319;30;138918;-47
2021/09/17 03:48:41;;;;;;;14.27;9.70;;;13.90;99.90;;;12.56;100.00;101275.16;2568399;30;138349;-48
2021/09/17 03:51:09;;;;;;;17.27;11.05;;;14.00;99.90;;;12.57;100.00;101282.31;2569256;30;138243;-47
2021/09/17 03:53:36;;;;;;;18.30;12.15;;;13.90;99.90;;;12.56;100.00;101273.25;2569489;30;137581;-45
2021/09/17 03:56:04;;;;;;;17.42;11.73;;;14.00;99.90;;;12.57;100.00;101271.38;2568183;30;138532;-47
2021/09/17 03:58:32;;;;;;;16.85;11.93;;;13.90;99.90;;;12.57;100.00;101266.72;2570971;30;137778;-48
2021/09/17 04:00:59;;;;;;;18.13;11.43;;;13.90;99.90;;;12.54;100.00;101266.31;2569697;30;138582;-47
2021/09/17 04:03:27;;;;;;;;;;;13.90;99.90;;;12.60;100.00;101270.94;2569120;30;137475;-45
2021/09/17 04:05:55;;;;;;;17.90;10.77;;;14.00;99.90;;;12.61;100.00;101272.63;2570069;30;138499;-46
2021/09/17 04:08:22;;;;;;;17.40;11.00;;;14.00;99.90;;;12.62;100.00;101277.03;2565946;30;137979;-45
2021/09/17 04:10:50;;;;;;;20.23;12.90;;;14.00;99.90;;;12.58;100.00;101264.84;2569482;30;138447;-46
2021/09/17 04:13:18;;;;;;;16.73;11.00;;;14.00;99.90;;;12.64;100.00;101273.03;2570184;30;138467;-46
2021/09/17 04:15:45;;;;;;;16.27;11.13;;;14.00;99.90;;;12.61;100.00;101267.13;2569824;30;136947;-47
2021/09/17 04:18:13;;;;;;;20.25;12.25;;;14.00;99.90;;;12.64;100.00;101269.44;2566720;30;137528;-48
2021/09/17 04:20:40;;;;;;;15.77;10.85;;;14.00;99.90;;;12.63;100.00;101265.03;2569571;30;137676;-46
2021/09/17 04:23:08;;;;;;;18.17;11.68;;;14.00;99.90;;;12.63;100.00;101270.50;2568149;30;137092;-45
2021/09/17 04:25:36;;;;;;;18.58;11.45;;;14.00;99.90;;;12.63;100.00;101265.03;2570865;30;137455;-46
2021/09/17 04:28:04;;;;;;;19.27;12.77;;;14.00;99.90;;;12.64;100.00;101266.72;2570775;30;137170;-46
2021/09/17 04:30:33;;;;;;;17.02;11.23;;;14.00;99.90;;;12.64;100.00;101267.56;2569231;30;139536;-46
2021/09/17 04:33:01;;;;;;;21.20;13.30;;;14.10;99.90;;;12.66;100.00;101270.06;2569732;30;136732;-46
2021/09/17 04:35:29;;;;;;;21.23;13.13;;;14.00;99.90;;;12.66;100.00;101267.31;2566716;30;138285;-46
2021/09/17 04:37:58;;;;;;;18.52;12.45;;;14.00;99.90;;;12.66;100.00;101267.31;2570370;30;137011;-46
2021/09/17 04:40:26;;;;;;;20.20;12.02;;;14.10;99.90;;;12.68;100.00;101262.47;2568812;30;137298;-47
2021/09/17 04:42:53;;;;;;;20.55;12.00;;;14.10;99.90;;;12.68;100.00;101267.13;2569058;30;137812;-48
2021/09/17 04:45:21;;;;;;;19.48;12.27;;;14.10;99.90;;;12.66;100.00;101264.59;2568361;30;137114;-47
2021/09/17 04:47:49;;;;;;;19.05;12.02;;;14.10;99.90;;;12.67;100.00;101266.28;2571146;30;137092;-47
2021/09/17 04:50:16;;;;;;;18.00;11.93;;;14.10;99.90;;;12.68;100.00;101261.66;2567936;30;138508;-45
2021/09/17 04:52:47;;;;;;;18.83;12.07;;;14.10;99.90;;;12.68;100.00;101267.94;2571333;30;136876;-48
2021/09/17 04:55:17;;;;;;;23.42;14.00;;;14.10;99.90;;;12.66;100.00;101261.84;2569638;30;137334;-46
2021/09/17 04:57:44;;;;;;;20.13;12.35;;;14.10;99.90;;;12.68;100.00;101267.13;2569514;30;136720;-47
2021/09/17 05:00:13;;;;;;;17.73;12.43;;;14.10;99.90;;;12.67;100.00;101266.28;2568344;30;137437;-50
2021/09/17 05:02:40;;;;;;;19.83;12.90;;;14.10;99.90;;;12.68;100.00;101265.22;2569868;30;136766;-47
2021/09/17 05:05:09;;;;;;;20.60;13.57;;;14.10;99.90;;;12.69;100.00;101268.81;2568673;30;137222;-47
2021/09/17 05:07:37;;;;;;;18.70;13.02;;;14.10;99.90;;;12.70;100.00;101273.22;2570023;30;138147;-47
2021/09/17 05:10:05;;;;;;;21.00;13.57;;;14.10;99.90;;;12.70;100.00;101271.31;2567416;30;138396;-46
2021/09/17 05:12:33;;;;;;;21.63;13.43;;;14.10;99.90;;;12.69;100.00;101274.28;2570474;30;138045;-47
2021/09/17 05:15:01;;;;;;;23.60;14.43;;;14.10;99.90;;;12.71;100.00;101267.50;2570296;30;138379;-46
2021/09/17 05:17:29;;;;;;;23.83;14.68;;;14.10;99.90;;;12.71;100.00;101270.25;2570350;30;136840;-47
2021/09/17 05:19:56;;;;;;;21.75;13.38;;;14.10;99.90;;;12.72;100.00;101269.19;2568883;30;138379;-47
2021/09/17 05:22:25;;;;;;;20.48;13.75;;;14.10;99.90;;;12.73;100.00;101261.84;2569727;30;136864;-46
2021/09/17 05:24:53;;;;;;;21.17;13.30;;;14.10;99.90;;;12.75;100.00;101267.94;2569298;30;139311;-47
2021/09/17 05:27:21;;;;;;;21.10;13.73;;;14.10;99.90;;;12.75;100.00;101274.25;2569643;30;137515;-47
2021/09/17 05:29:48;;;;;;;;;;;14.20;99.90;;;12.76;100.00;101265.00;2570599;30;139151;-46
2021/09/17 05:32:16;;;;;;;24.15;14.77;;;14.10;99.90;;;12.79;100.00;101275.50;2569834;30;137049;-45
2021/09/17 05:34:44;;;;;;;20.75;13.18;;;14.20;99.90;;;12.76;100.00;101267.72;2569346;30;139660;-46
2021/09/17 05:37:11;;;;;;;21.08;14.38;;;14.20;99.90;;;12.82;100.00;101271.47;2571736;30;136631;-52
2021/09/17 05:39:39;;;;;;;21.75;14.32;;;14.20;99.90;;;12.84;100.00;101266.63;2569947;30;138439;-46
2021/09/17 05:42:07;;;;;;;23.08;14.63;;;14.20;99.90;;;12.86;100.00;101271.91;2570425;30;136878;-45
2021/09/17 05:44:34;;;;;;;20.88;14.20;;;14.20;99.90;;;12.87;100.00;101274.44;2569161;30;138426;-49
2021/09/17 05:47:02;;;;;;;23.15;14.45;;;14.20;99.90;;;12.87;100.00;101271.69;2572058;30;136748;-45
2021/09/17 05:49:30;;;;;;;23.70;15.65;;;14.20;99.90;;;12.92;100.00;101276.50;2569060;30;137191;-50
2021/09/17 05:51:57;;;;;;;22.13;13.95;;;14.30;99.90;;;12.93;100.00;101275.44;2567497;30;137824;-46
2021/09/17 05:54:27;;;;;;;20.40;13.48;;;14.30;99.90;;;12.96;100.00;101277.75;2568365;30;138162;-47
2021/09/17 05:56:55;;;;;;;22.73;14.25;;;14.30;99.90;;;12.96;100.00;101280.47;2567902;30;137542;-48
2021/09/17 05:59:22;;;;;;;24.88;16.48;;;14.30;99.90;;;12.98;100.00;101277.53;2572317;30;138879;-46
2021/09/17 06:01:50;;;;;;;21.77;14.95;;;14.30;99.90;;;12.99;100.00;101282.78;2568120;30;138148;-45
2021/09/17 06:04:17;;;;;;;24.85;15.52;;;14.40;99.90;;;13.02;100.00;101282.38;2570428;30;137183;-47
2021/09/17 06:06:46;;;;;;;26.20;16.67;;;14.40;99.90;;;13.04;100.00;101279.41;2567048;30;137275;-46
2021/09/17 06:09:14;;;;;;;24.58;16.08;;;14.40;99.90;;;13.06;100.00;101286.34;2570912;30;138143;-46
2021/09/17 06:11:41;;;;;;;25.30;15.40;;;14.40;99.90;;;13.09;100.00;101287.78;2568444;30;137484;-47
2021/09/17 06:14:09;;;;;;;24.27;16.08;;;14.50;99.90;;;13.15;100.00;101283.34;2568862;30;137250;-45
2021/09/17 06:16:37;;;;;;;27.80;17.33;;;14.50;99.90;;;13.17;100.00;101281.22;2571587;30;137959;-46
2021/09/17 06:19:04;;;;;;;24.80;16.90;;;14.50;99.90;;;13.20;100.00;101278.91;2569744;30;138363;-46
2021/09/17 06:21:34;;;;;;;25.65;16.73;;;14.50;99.90;;;13.24;100.00;101282.88;2570978;30;138239;-47
2021/09/17 06:24:03;;;;;;;25.23;16.20;;;14.60;99.90;;;13.27;100.00;101280.75;2569854;30;138966;-45
2021/09/17 06:26:31;;;;;;;28.05;16.48;;;14.60;99.90;;;13.32;100.00;101279.06;2568745;30;137282;-45
2021/09/17 06:29:04;;;;;;;26.30;16.52;;;14.60;99.90;;;13.35;100.00;101280.50;2570098;30;139119;-46
2021/09/17 06:31:33;;;;;;;24.95;15.30;;;14.70;99.90;;;13.38;100.00;101277.31;2569937;30;137526;-45
2021/09/17 06:34:01;;;;;;;28.50;16.95;;;14.70;99.90;;;13.43;100.00;101280.28;2568407;30;138008;-49
2021/09/17 06:36:29;;;;;;;27.17;17.25;;;14.70;99.90;;;13.48;100.00;101279.59;2569760;30;136632;-45
2021/09/17 06:39:00;;;;;;;26.20;16.50;;;14.80;99.90;;;13.54;100.00;101277.88;2570783;30;138608;-47
2021/09/17 06:41:30;;;;;;;29.60;18.20;;;14.80;99.90;;;13.58;100.00;101281.88;2570394;30;137415;-45
2021/09/17 06:43:58;;;;;;;27.52;17.70;;;14.90;99.90;;;13.62;100.00;101277.59;2569241;30;138677;-45
2021/09/17 06:46:26;;;;;;;26.50;17.55;;;14.90;99.90;;;13.65;100.00;101280.75;2569357;30;138377;-47
2021/09/17 06:48:53;;;;;;;;;;;14.90;99.90;;;13.70;100.00;101273.75;2570679;30;137403;-47
2021/09/17 06:51:23;;;;;;;;;;;15.00;99.90;;;13.75;100.00;101276.66;2570480;30;136860;-46
2021/09/17 06:53:51;;;;;;;27.40;15.15;;;15.00;99.90;;;13.78;100.00;101277.06;2569574;30;137873;-46
2021/09/17 06:56:18;;;;;;;25.50;16.27;;;15.10;99.90;;;13.82;100.00;101280.22;2567891;30;138150;-45
2021/09/17 06:58:46;;;;;;;27.50;17.35;;;15.10;99.90;;;13.88;100.00;101287.56;2568180;30;138181;-47
2021/09/17 07:01:13;;;;;;;28.00;17.33;;;15.10;99.90;;;13.92;100.00;101283.28;2570657;30;137657;-47
2021/09/17 07:03:41;;;;;;;;;;;15.20;99.90;;;13.94;100.00;101278.41;2573327;30;136870;-46
2021/09/17 07:06:09;;;;;;;36.25;19.13;;;15.20;99.90;;;13.99;100.00;101277.75;2567947;30;137036;-47
2021/09/17 07:08:37;;;;;;;;;;;15.20;99.90;;;13.95;100.00;101262.81;2579385;30;138366;-40
2021/09/17 07:11:04;;;;;;;27.08;15.88;;;15.30;99.90;;;14.07;100.00;101279.38;2568366;30;137749;-45
2021/09/17 07:13:32;;;;;;;26.98;16.42;;;15.30;99.90;;;14.14;100.00;101273.81;2567479;30;139223;-44
2021/09/17 07:15:59;;;;;;;28.42;16.73;;;15.40;99.90;;;14.21;100.00;101278.19;2566932;30;137455;-44
2021/09/17 07:18:28;;;;;;;29.05;16.45;;;15.40;99.90;;;14.28;100.00;101275.38;2566988;30;136724;-44
2021/09/17 07:20:57;;;;;;;28.73;17.88;;;15.50;99.90;;;14.34;100.00;101270.91;2568215;30;136792;-43
2021/09/17 07:23:24;;;;;;;29.95;17.33;;;15.60;99.90;;;14.41;100.00;101268.91;2565321;30;138210;-43
2021/09/17 07:25:52;;;;;;;33.63;18.20;;;15.60;99.90;;;14.48;100.00;101277.09;2568601;30;136777;-45
2021/09/17 07:28:20;;;;;;;31.17;18.08;;;15.70;99.90;;;14.52;100.00;101265.41;2567073;30;138746;-44
2021/09/17 07:30:48;;;;;;;25.73;16.67;;;15.70;99.90;;;14.57;100.00;101259.22;2568809;30;137160;-45
2021/09/17 07:33:15;;;;;;;26.63;16.38;;;15.80;99.90;;;14.62;100.00;101262.13;2567623;30;137193;-46
2021/09/17 07:35:43;;;;;;;28.75;17.05;;;15.80;99.90;;;14.66;100.00;101259.78;2568068;30;137511;-45
2021/09/17 07:38:11;;;;;;;32.30;17.42;;;15.80;99.90;;;14.73;100.00;101265.22;2568481;30;138450;-44
2021/09/17 07:40:38;;;;;;;;;;;15.90;99.90;;;14.76;100.00;101262.84;2566316;30;137044;-44
2021/09/17 07:43:06;;;;;;;30.08;19.27;;;16.00;99.90;;;14.80;100.00;101257.72;2568827;30;138119;-45
2021/09/17 07:45:34;;;;;;;25.75;16.42;;;16.00;99.90;;;14.82;100.00;101248.19;2567295;30;137487;-44
2021/09/17 07:48:03;;;;;;;28.27;18.08;;;16.10;99.90;;;14.90;100.00;101249.78;2567096;30;137183;-46
2021/09/17 07:50:31;;;;;;;31.80;19.65;;;16.10;99.90;;;14.92;100.00;101253.13;2566776;30;137420;-44
2021/09/17 07:52:59;;;;;;;29.83;17.80;;;16.10;99.90;;;14.92;99.53;101255.06;2568417;30;138494;-44
2021/09/17 07:55:32;;;;;;;31.52;19.70;;;16.10;99.90;;;15.00;99.22;101257.47;2567460;30;137831;-43
2021/09/17 07:58:05;;;;;;;28.92;18.30;;;16.20;99.90;;;14.98;97.67;101261.50;2568440;30;138245;-45
2021/09/17 08:00:33;;;;;;;31.88;19.48;;;16.20;99.90;;;14.98;96.72;101256.88;2567128;30;137772;-48
2021/09/17 08:03:01;;;;;;;27.17;17.40;;;16.20;99.90;;;15.01;96.95;101255.56;2567858;30;139009;-46
2021/09/17 08:05:29;;;;;;;28.90;17.70;;;16.20;99.90;;;15.05;96.85;101263.09;2568037;30;136996;-46
2021/09/17 08:07:56;;;;;;;30.33;19.05;;;16.20;99.90;;;15.10;96.17;101268.72;2567935;30;137284;-43
2021/09/17 08:10:24;;;;;;;29.00;18.92;;;16.30;99.90;;;15.14;96.26;101266.38;2567495;30;136785;-44
2021/09/17 08:12:51;;;;;;;27.88;17.98;;;16.30;99.90;;;15.19;95.53;101260.19;2569538;30;137022;-44
2021/09/17 08:15:19;;;;;;;32.28;18.08;;;16.30;99.90;;;15.24;95.14;101255.66;2565029;30;137767;-43
2021/09/17 08:17:47;;;;;;;28.58;18.17;;;16.40;99.90;;;15.31;95.28;101250.06;2567621;30;137782;-44
2021/09/17 08:20:14;;;;;;;29.63;17.30;;;16.50;99.90;;;15.37;94.66;101253.78;2566838;30;138401;-46
2021/09/17 08:22:42;;;;;;;30.08;17.55;;;16.50;99.90;;;15.42;92.69;101259.41;2567760;30;137875;-44
2021/09/17 08:25:10;;;;;;;31.08;17.77;;;16.50;99.90;;;15.49;90.61;101264.81;2567700;30;137638;-45
2021/09/17 08:27:39;;;;;;;26.30;16.00;;;16.60;99.90;;;15.52;87.70;101283.59;2567117;30;137278;-45
2021/09/17 08:30:09;;;;;;;23.52;14.98;;;16.60;99.90;;;15.72;91.54;101283.28;2568935;30;137415;-44
2021/09/17 08:32:39;;;;;;;25.38;16.23;;;16.70;99.90;;;15.95;93.63;101282.53;2567845;30;138831;-44
2021/09/17 08:35:11;;;;;;;29.02;17.75;;;16.90;99.90;;;16.12;90.43;101283.75;2567047;30;137739;-45
2021/09/17 08:37:40;;;;;;;26.27;16.65;;;17.10;99.90;;;16.27;85.21;101291.53;2567743;30;137317;-44
2021/09/17 08:40:14;;;;;;;25.60;16.05;;;17.20;99.90;;;16.62;89.02;101282.38;2567879;30;137652;-49
2021/09/17 08:42:44;;;;;;;28.65;17.42;;;17.50;99.90;;;16.85;86.19;101284.28;2567475;30;138226;-44
2021/09/17 08:45:13;;;;;;;24.73;15.82;;;17.70;99.90;;;17.04;85.70;101279.44;2566043;30;137734;-44
2021/09/17 08:47:49;;;;;;;25.33;16.77;;;17.80;99.90;;;17.22;82.94;101278.41;2565311;30;139149;-44
2021/09/17 08:50:20;;;;;;;27.00;16.83;;;18.00;99.90;;;17.35;81.92;101282.78;2567531;30;137383;-46
2021/09/17 08:52:49;;;;;;;25.05;15.23;;;18.20;99.90;;;17.47;79.02;101284.63;2566480;30;138174;-50
2021/09/17 08:55:17;;;;;;;23.33;14.05;;;18.30;99.90;;;17.54;78.09;101271.56;2566562;30;137573;-45
2021/09/17 08:57:47;;;;;;;;;;;18.30;99.90;;;17.62;76.95;101270.28;2567436;30;137459;-45
2021/09/17 09:00:26;;;;;;;25.77;16.80;;;18.50;99.90;;;17.74;80.93;101275.72;2568601;30;136890;-41
2021/09/17 09:02:56;;;;;;;30.75;16.50;;;18.60;99.90;;;17.71;77.07;101266.03;2567723;30;138435;-44
2021/09/17 09:05:35;;;;;;;23.73;14.75;;;18.70;99.90;;;17.79;80.87;101271.13;2568584;30;136765;-46
2021/09/17 09:08:05;;;;;;;23.95;15.07;;;18.70;99.90;;;17.72;78.81;101275.16;2568743;30;136755;-44
2021/09/17 09:10:34;;;;;;;21.52;12.98;;;18.70;99.90;;;17.69;78.35;101274.56;2569223;30;136749;-46
2021/09/17 09:13:06;;;;;;;23.45;13.68;;;18.70;99.90;;;17.74;77.86;101279.34;2567942;30;138534;-45
2021/09/17 09:15:36;;;;;;;22.00;13.90;;;18.70;99.90;;;17.85;77.16;101274.84;2567870;30;137709;-44
2021/09/17 09:18:13;;;;;;;23.45;13.93;;;18.70;99.90;;;17.96;76.52;101278.59;2569049;30;139155;-44
2021/09/17 09:20:49;;;;;;;24.65;13.27;;;18.80;99.90;;;18.04;77.39;101274.63;2567281;30;138267;-46
2021/09/17 09:23:22;;;;;;;24.25;12.70;;;18.90;99.90;;;18.11;77.32;101272.50;2568544;30;137056;-46
2021/09/17 09:26:03;;;;;;;25.30;13.38;;;18.90;99.90;;;18.25;77.40;101273.81;2568500;30;138117;-44
2021/09/17 09:28:43;;;;;;;21.70;13.35;;;19.10;99.90;;;18.25;73.86;101275.75;2568653;30;137614;-45
2021/09/17 09:31:16;;;;;;;20.30;12.50;;;19.10;99.90;;;18.35;75.26;101277.84;2567885;30;137400;-44
2021/09/17 09:33:47;;;;;;;22.63;13.23;;;19.20;99.90;;;18.44;75.09;101281.00;2567590;30;137064;-45
2021/09/17 09:36:18;;;;;;;19.85;12.98;;;19.20;99.90;;;18.63;77.90;101278.78;2569051;30;136856;-45
2021/09/17 09:38:50;;;;;;;22.05;13.10;;;19.40;99.90;;;18.69;75.80;101278.56;2568062;30;137025;-44
2021/09/17 09:41:28;;;;;;;22.90;13.48;;;19.50;99.90;;;18.72;75.66;101280.00;2567636;30;136749;-45
2021/09/17 09:44:02;;;;;;;22.98;13.55;;;19.60;99.90;;;18.73;74.69;101281.66;2570321;30;138280;-48
2021/09/17 09:46:43;;;;;;;20.15;12.02;;;19.60;99.90;;;18.90;76.19;101278.81;2567724;30;137602;-49
2021/09/17 09:49:29;;;;;;;20.10;12.98;;;19.70;99.90;;;19.01;73.09;101282.59;2569061;30;138640;-44
2021/09/17 09:52:14;;;;;;;19.27;12.85;;;19.80;99.90;;;19.09;71.75;101281.28;2568112;30;137593;-44
2021/09/17 09:54:43;;;;;;;20.02;12.82;;;19.90;99.90;;;19.12;70.08;101275.25;2568997;30;137075;-47
2021/09/17 09:57:11;;;;;;;18.88;12.93;;;19.90;99.90;;;19.18;70.33;101274.19;2568799;30;137242;-44
2021/09/17 09:59:39;;;;;;;21.40;12.88;;;19.90;99.90;;;19.26;71.34;101276.53;2567653;30;138233;-45
2021/09/17 10:02:07;;;;;;;19.80;12.10;;;20.00;99.90;;;19.38;70.63;101273.59;2568558;30;137161;-49
2021/09/17 10:04:35;;;;;;;17.95;11.85;;;20.10;99.90;;;19.44;68.11;101282.75;2568241;30;138433;-46